createdAt,value
2023-02-01T00:00:17.169Z,2.28
2023-02-01T00:02:43.827Z,1.52
2023-02-01T00:05:11.263Z,2.53
2023-02-01T00:07:38.613Z,1.83
2023-02-01T00:10:06.695Z,2.53
2023-02-01T00:12:33.720Z,1.90
2023-02-01T00:15:00.525Z,2.60
2023-02-01T00:17:27.179Z,3.35
2023-02-01T00:19:53.774Z,1.75
2023-02-01T00:22:20.381Z,1.58
2023-02-01T00:24:47.021Z,1.27
2023-02-01T00:27:18.427Z,2.08
2023-02-01T00:29:46.145Z,2.92
2023-02-01T00:32:13.572Z,2.40
2023-02-01T00:34:40.149Z,1.65
2023-02-01T00:37:06.906Z,2.85
2023-02-01T00:39:33.578Z,1.40
2023-02-01T00:42:01.907Z,2.42
2023-02-01T00:44:28.655Z,2.25
2023-02-01T00:46:55.225Z,2.53
2023-02-01T00:49:21.829Z,2.00
2023-02-01T00:51:48.496Z,2.08
2023-02-01T00:54:15.081Z,1.67
2023-02-01T00:56:41.688Z,1.48
2023-02-01T00:59:11.895Z,2.53
2023-02-01T01:01:38.522Z,3.22
2023-02-01T01:04:05.222Z,2.65
2023-02-01T01:06:34.116Z,1.73
2023-02-01T01:09:03.761Z,1.23
2023-02-01T01:11:33.295Z,1.92
2023-02-01T01:14:01.056Z,2.35
2023-02-01T01:16:30.315Z,2.05
2023-02-01T01:18:57.720Z,2.28
2023-02-01T01:21:24.977Z,2.30
2023-02-01T01:23:51.870Z,2.72
2023-02-01T01:26:29.299Z,2.45
2023-02-01T01:28:58.058Z,2.70
2023-02-01T01:31:25.157Z,2.65
2023-02-01T01:33:53.931Z,2.25
2023-02-01T01:36:20.946Z,2.42
2023-02-01T01:38:48.204Z,2.10
2023-02-01T01:41:20.163Z,2.20
2023-02-01T01:43:57.762Z,2.13
2023-02-01T01:46:27.138Z,1.35
2023-02-01T01:49:24.512Z,1.63
2023-02-01T01:51:59.744Z,2.28
2023-02-01T01:54:38.284Z,2.58
2023-02-01T01:57:10.076Z,2.00
2023-02-01T01:59:39.480Z,1.52
2023-02-01T02:02:06.244Z,2.22
2023-02-01T02:04:34.816Z,2.88
2023-02-01T02:07:25.906Z,3.15
2023-02-01T02:10:00.425Z,1.52
2023-02-01T02:12:27.828Z,1.65
2023-02-01T02:14:54.829Z,2.05
2023-02-01T02:17:37.133Z,1.83
2023-02-01T02:20:25.052Z,1.67
2023-02-01T02:23:10.560Z,1.52
2023-02-01T02:25:48.973Z,2.53
2023-02-01T02:28:34.349Z,2.05
2023-02-01T02:31:22.676Z,2.08
2023-02-01T02:34:04.207Z,2.45
2023-02-01T02:37:00.695Z,1.27
2023-02-01T02:39:36.481Z,1.67
2023-02-01T02:42:58.434Z,1.88
2023-02-01T02:45:48.284Z,1.63
2023-02-01T02:48:28.042Z,1.95
2023-02-01T02:51:23.193Z,2.05
2023-02-01T02:54:30.003Z,2.72
2023-02-01T02:57:18.075Z,2.00
2023-02-01T03:00:05.643Z,1.92
2023-02-01T03:02:52.020Z,3.13
2023-02-01T03:05:18.843Z,1.67
2023-02-01T03:07:45.378Z,1.63
2023-02-01T03:10:25.411Z,1.58
2023-02-01T03:12:56.919Z,2.50
2023-02-01T03:15:50.884Z,1.85
2023-02-01T03:18:30.986Z,1.73
2023-02-01T03:21:04.475Z,2.38
2023-02-01T03:23:35.024Z,2.72
2023-02-01T03:26:05.023Z,1.08
2023-02-01T03:28:34.131Z,1.75
2023-02-01T03:31:02.108Z,2.22
2023-02-01T03:33:31.071Z,2.05
2023-02-01T03:36:05.227Z,0.93
2023-02-01T03:38:59.390Z,2.08
2023-02-01T03:41:50.330Z,2.70
2023-02-01T03:44:41.001Z,2.53
2023-02-01T03:47:26.804Z,2.38
2023-02-01T03:49:58.618Z,2.30
2023-02-01T03:52:43.210Z,1.52
2023-02-01T03:55:13.461Z,1.77
2023-02-01T03:57:54.146Z,1.63
2023-02-01T04:00:25.271Z,3.03
2023-02-01T04:02:53.099Z,1.67
2023-02-01T04:05:20.806Z,2.03
2023-02-01T04:07:47.403Z,2.13
2023-02-01T04:10:14.164Z,2.05
2023-02-01T04:12:42.353Z,2.88
2023-02-01T04:15:09.354Z,2.60
2023-02-01T04:20:02.501Z,1.42
2023-02-01T04:22:29.716Z,1.65
2023-02-01T04:24:56.319Z,1.95
2023-02-01T04:29:53.380Z,2.03
2023-02-01T04:32:20.765Z,2.10
2023-02-01T04:34:47.408Z,1.95
2023-02-01T04:37:14.035Z,2.13
2023-02-01T04:39:40.573Z,1.77
2023-02-01T04:42:07.197Z,2.45
2023-02-01T04:44:33.810Z,1.55
2023-02-01T04:47:00.415Z,2.25
2023-02-01T04:49:27.739Z,2.40
2023-02-01T04:51:54.406Z,2.80
2023-02-01T04:54:21.005Z,1.20
2023-02-01T04:56:47.571Z,2.35
2023-02-01T04:59:14.149Z,2.22
2023-02-01T05:01:40.747Z,2.85
2023-02-01T05:04:07.331Z,1.58
2023-02-01T05:06:33.970Z,2.17
2023-02-01T05:09:00.686Z,3.10
2023-02-01T05:11:46.085Z,1.90
2023-02-01T05:14:12.658Z,1.83
2023-02-01T05:16:39.269Z,2.67
2023-02-01T05:19:05.879Z,1.88
2023-02-01T05:21:32.444Z,2.17
2023-02-01T05:24:11.610Z,3.55
2023-02-01T05:26:38.831Z,2.17
2023-02-01T05:29:06.995Z,2.60
2023-02-01T05:31:33.931Z,3.15
2023-02-01T05:34:00.662Z,2.83
2023-02-01T05:36:27.238Z,1.98
2023-02-01T05:38:53.830Z,3.33
2023-02-01T05:41:20.432Z,2.60
2023-02-01T05:43:46.990Z,2.55
2023-02-01T05:46:14.652Z,2.22
2023-02-01T05:48:42.063Z,3.35
2023-02-01T05:51:09.643Z,2.60
2023-02-01T05:53:36.443Z,3.22
2023-02-01T05:56:03.655Z,3.08
2023-02-01T05:58:31.126Z,3.03
2023-02-01T06:01:00.628Z,1.83
2023-02-01T06:03:27.675Z,3.25
2023-02-01T06:05:54.461Z,1.83
2023-02-01T06:08:21.095Z,2.30
2023-02-01T06:10:48.162Z,3.33
2023-02-01T06:13:14.708Z,3.20
2023-02-01T06:15:43.319Z,3.38
2023-02-01T06:18:10.201Z,4.22
2023-02-01T06:20:36.752Z,2.42
2023-02-01T06:23:03.386Z,2.45
2023-02-01T06:25:30.217Z,2.78
2023-02-01T06:27:56.778Z,4.35
2023-02-01T06:30:23.671Z,4.78
2023-02-01T06:32:54.570Z,4.60
2023-02-01T06:35:21.384Z,2.45
2023-02-01T06:37:48.267Z,5.00
2023-02-01T06:40:15.059Z,3.28
2023-02-01T06:42:41.669Z,3.15
2023-02-01T06:45:08.993Z,3.55
2023-02-01T06:47:35.638Z,3.78
2023-02-01T06:50:02.467Z,2.55
2023-02-01T06:52:29.080Z,5.70
2023-02-01T06:54:56.682Z,2.55
2023-02-01T06:57:23.247Z,3.38
2023-02-01T06:59:50.265Z,2.75
2023-02-01T07:02:16.849Z,3.22
2023-02-01T07:04:43.649Z,2.28
2023-02-01T07:07:10.217Z,3.40
2023-02-01T07:09:36.765Z,2.47
2023-02-01T07:12:03.489Z,3.17
2023-02-01T07:14:30.095Z,1.67
2023-02-01T07:16:56.662Z,2.30
2023-02-01T07:19:23.394Z,1.95
2023-02-01T07:21:50.084Z,1.65
2023-02-01T07:24:16.809Z,3.28
2023-02-01T07:26:43.445Z,2.35
2023-02-01T07:29:10.102Z,2.47
2023-02-01T07:31:36.644Z,2.55
2023-02-01T07:34:03.707Z,3.00
2023-02-01T07:36:30.345Z,2.17
2023-02-01T07:38:58.110Z,2.30
2023-02-01T07:41:24.731Z,3.65
2023-02-01T07:43:53.891Z,2.17
2023-02-01T07:46:20.651Z,2.15
2023-02-01T07:48:47.302Z,3.38
2023-02-01T07:51:16.692Z,1.55
2023-02-01T07:53:45.870Z,2.13
2023-02-01T07:56:18.831Z,1.92
2023-02-01T07:58:49.356Z,3.92
2023-02-01T08:01:21.673Z,2.92
2023-02-01T08:03:54.428Z,1.98
2023-02-01T08:06:22.575Z,1.92
2023-02-01T08:08:50.897Z,1.85
2023-02-01T08:11:18.310Z,1.88
2023-02-01T08:13:45.683Z,1.88
2023-02-01T08:16:13.643Z,1.98
2023-02-01T08:18:40.738Z,1.73
2023-02-01T08:21:09.741Z,1.90
2023-02-01T08:23:37.853Z,1.60
2023-02-01T08:26:13.441Z,3.13
2023-02-01T08:28:41.612Z,2.13
2023-02-01T08:31:12.318Z,1.95
2023-02-01T08:33:39.785Z,3.67
2023-02-01T08:36:08.023Z,2.03
2023-02-01T08:38:37.440Z,2.78
2023-02-01T08:41:10.062Z,3.10
2023-02-01T08:43:36.954Z,2.20
2023-02-01T08:46:05.188Z,2.42
2023-02-01T08:48:32.287Z,2.55
2023-02-01T08:51:01.639Z,1.48
2023-02-01T08:53:28.223Z,2.17
2023-02-01T08:55:54.857Z,1.77
2023-02-01T08:58:22.607Z,2.63
2023-02-01T09:00:49.661Z,2.05
2023-02-01T09:03:16.740Z,2.03
2023-02-01T09:05:49.530Z,3.25
2023-02-01T09:08:17.200Z,2.22
2023-02-01T09:10:43.870Z,2.97
2023-02-01T09:13:10.578Z,1.92
2023-02-01T09:15:38.534Z,2.50
2023-02-01T09:18:05.214Z,2.65
2023-02-01T09:20:31.777Z,2.67
2023-02-01T09:22:58.697Z,1.88
2023-02-01T09:25:25.431Z,2.17
2023-02-01T09:27:52.073Z,2.13
2023-02-01T09:30:18.722Z,1.17
2023-02-01T09:32:45.265Z,1.80
2023-02-01T09:35:12.456Z,1.58
2023-02-01T09:37:39.041Z,2.47
2023-02-01T09:40:06.258Z,1.90
2023-02-01T09:43:10.789Z,1.73
2023-02-01T09:46:00.239Z,1.58
2023-02-01T09:48:33.701Z,2.53
2023-02-01T09:51:03.644Z,1.50
2023-02-01T09:53:41.197Z,2.65
2023-02-01T09:56:13.033Z,5.72
2023-02-01T09:58:48.125Z,2.83
2023-02-01T10:01:24.389Z,3.08
2023-02-01T10:03:56.869Z,2.42
2023-02-01T10:06:33.945Z,2.45
2023-02-01T10:09:36.216Z,2.30
2023-02-01T10:12:35.378Z,1.83
2023-02-01T10:15:20.328Z,3.95
2023-02-01T10:18:12.289Z,1.75
2023-02-01T10:21:03.247Z,2.47
2023-02-01T10:23:41.845Z,2.90
2023-02-01T10:26:23.014Z,3.50
2023-02-01T10:28:52.902Z,2.75
2023-02-01T10:31:22.063Z,2.47
2023-02-01T10:33:52.176Z,3.03
2023-02-01T10:36:30.416Z,1.70
2023-02-01T10:39:01.420Z,4.03
2023-02-01T10:41:35.478Z,2.40
2023-02-01T10:44:05.520Z,2.72
2023-02-01T10:46:34.482Z,2.80
2023-02-01T10:49:05.613Z,2.22
2023-02-01T10:51:48.703Z,2.33
2023-02-01T10:54:21.518Z,2.03
2023-02-01T10:56:49.928Z,2.40
2023-02-01T10:59:24.598Z,2.40
2023-02-01T11:02:02.824Z,2.08
2023-02-01T11:04:36.460Z,2.35
2023-02-01T11:07:28.249Z,1.95
2023-02-01T11:09:57.237Z,3.72
2023-02-01T11:12:33.680Z,1.63
2023-02-01T11:15:20.077Z,1.95
2023-02-01T11:17:52.230Z,2.10
2023-02-01T11:20:43.298Z,2.28
2023-02-01T11:23:22.331Z,1.48
2023-02-01T11:25:56.535Z,1.85
2023-02-01T11:28:35.996Z,1.38
2023-02-01T11:31:10.575Z,4.80
2023-02-01T11:33:44.025Z,2.42
2023-02-01T11:36:18.186Z,1.95
2023-02-01T11:39:09.651Z,3.03
2023-02-01T11:42:02.136Z,1.88
2023-02-01T11:44:34.630Z,1.75
2023-02-01T11:47:22.208Z,2.33
2023-02-01T11:49:50.780Z,1.20
2023-02-01T11:52:44.872Z,2.42
2023-02-01T11:55:23.514Z,1.52
2023-02-01T11:58:36.901Z,4.10
2023-02-01T12:01:30.902Z,1.40
2023-02-01T12:04:15.159Z,1.23
2023-02-01T12:06:54.584Z,3.75
2023-02-01T12:09:46.406Z,2.25
2023-02-01T12:12:26.519Z,1.70
2023-02-01T12:15:21.037Z,1.98
2023-02-01T12:18:16.588Z,0.98
2023-02-01T12:20:46.144Z,1.08
2023-02-01T12:23:43.597Z,3.78
2023-02-01T12:26:34.439Z,1.42
2023-02-01T12:29:19.653Z,1.38
2023-02-01T12:32:04.062Z,3.00
2023-02-01T12:34:40.711Z,2.55
2023-02-01T12:37:26.198Z,1.30
2023-02-01T12:40:13.945Z,1.63
2023-02-01T12:42:59.185Z,2.05
2023-02-01T12:45:39.096Z,1.67
2023-02-01T12:48:38.293Z,3.92
2023-02-01T12:51:19.716Z,1.05
2023-02-01T12:53:56.200Z,2.08
2023-02-01T12:56:30.522Z,1.45
2023-02-01T12:59:02.413Z,1.38
2023-02-01T13:01:42.275Z,2.67
2023-02-01T13:04:26.421Z,1.48
2023-02-01T13:07:18.985Z,1.42
2023-02-01T13:09:48.619Z,1.38
2023-02-01T13:12:21.765Z,1.90
2023-02-01T13:15:01.840Z,0.95
2023-02-01T13:17:33.079Z,1.63
2023-02-01T13:20:25.506Z,1.38
2023-02-01T13:23:01.321Z,1.65
2023-02-01T13:26:03.660Z,1.15
2023-02-01T13:28:51.220Z,1.30
2023-02-01T13:31:36.877Z,1.02
2023-02-01T13:34:25.218Z,1.63
2023-02-01T13:37:15.156Z,1.08
2023-02-01T13:39:50.126Z,2.60
2023-02-01T13:42:43.409Z,3.45
2023-02-01T13:45:21.543Z,2.63
2023-02-01T13:47:53.981Z,2.05
2023-02-01T13:50:36.076Z,1.98
2023-02-01T13:53:16.183Z,2.67
2023-02-01T13:55:50.525Z,2.80
2023-02-01T13:58:22.816Z,4.00
2023-02-01T14:00:54.268Z,2.88
2023-02-01T14:03:44.877Z,5.03
2023-02-01T14:06:36.922Z,2.17
2023-02-01T14:09:09.332Z,3.45
2023-02-01T14:11:45.173Z,3.22
2023-02-01T14:14:17.796Z,1.88
2023-02-01T14:16:53.504Z,1.92
2023-02-01T14:19:26.105Z,1.73
2023-02-01T14:22:04.937Z,2.78
2023-02-01T14:24:36.358Z,4.88
2023-02-01T14:27:13.450Z,7.43
2023-02-01T14:29:43.310Z,5.20
2023-02-01T14:32:17.021Z,3.22
2023-02-01T14:34:53.340Z,4.20
2023-02-01T14:37:19.894Z,2.30
2023-02-01T14:39:46.408Z,4.32
2023-02-01T14:42:24.811Z,1.98
2023-02-01T14:44:59.110Z,2.88
2023-02-01T14:47:26.756Z,3.38
2023-02-01T14:50:15.966Z,2.05
2023-02-01T14:53:01.423Z,1.35
2023-02-01T14:55:31.280Z,2.90
2023-02-01T14:58:01.569Z,3.40
2023-02-01T15:00:31.401Z,2.28
2023-02-01T15:03:24.645Z,4.38
2023-02-01T15:05:59.273Z,1.92
2023-02-01T15:08:38.243Z,2.00
2023-02-01T15:11:12.629Z,0.85
2023-02-01T15:13:39.196Z,1.58
2023-02-01T15:16:14.886Z,1.88
2023-02-01T15:18:42.008Z,1.38
2023-02-01T15:21:27.434Z,3.17
2023-02-01T15:24:15.527Z,1.38
2023-02-01T15:26:42.309Z,1.67
2023-02-01T15:29:12.782Z,1.65
2023-02-01T15:31:46.417Z,2.17
2023-02-01T15:34:14.057Z,1.48
2023-02-01T15:36:45.758Z,0.50
2023-02-01T15:39:23.908Z,1.75
2023-02-01T15:41:56.770Z,0.95
2023-02-01T15:44:23.281Z,1.25
2023-02-01T15:46:51.703Z,2.65
2023-02-01T15:49:20.324Z,3.55
2023-02-01T15:51:48.533Z,2.08
2023-02-01T15:54:33.581Z,2.25
2023-02-01T15:57:02.522Z,2.53
2023-02-01T15:59:42.130Z,0.90
2023-02-01T16:02:27.588Z,1.13
2023-02-01T16:04:55.364Z,2.50
2023-02-01T16:07:30.757Z,2.65
2023-02-01T16:10:00.135Z,3.45
2023-02-01T16:12:30.291Z,1.00
2023-02-01T16:14:56.989Z,1.90
2023-02-01T16:17:23.719Z,1.90
2023-02-01T16:19:50.830Z,3.40
2023-02-01T16:22:17.468Z,0.95
2023-02-01T16:24:44.036Z,1.60
2023-02-01T16:27:10.646Z,1.13
2023-02-01T16:29:37.200Z,2.88
2023-02-01T16:32:05.386Z,1.83
2023-02-01T16:34:32.371Z,3.72
2023-02-01T16:36:59.281Z,2.63
2023-02-01T16:39:25.866Z,1.60
2023-02-01T16:41:52.520Z,1.98
2023-02-01T16:44:19.419Z,1.40
2023-02-01T16:46:48.751Z,2.28
2023-02-01T16:49:21.615Z,2.58
2023-02-01T16:51:50.872Z,2.35
2023-02-01T16:54:17.444Z,1.33
2023-02-01T16:56:46.293Z,2.88
2023-02-01T16:59:13.450Z,2.92
2023-02-01T17:01:44.477Z,2.22
2023-02-01T17:04:12.453Z,1.45
2023-02-01T17:06:40.486Z,1.73
2023-02-01T17:09:07.429Z,2.42
2023-02-01T17:11:34.184Z,2.55
2023-02-01T17:14:17.450Z,3.15
2023-02-01T17:16:46.533Z,4.13
2023-02-01T17:19:24.553Z,1.27
2023-02-01T17:21:56.408Z,2.67
2023-02-01T17:24:27.114Z,3.67
2023-02-01T17:26:55.658Z,5.43
2023-02-01T17:29:22.577Z,2.92
2023-02-01T17:31:52.997Z,4.47
2023-02-01T17:34:19.646Z,4.57
2023-02-01T17:36:48.057Z,5.85
2023-02-01T17:39:36.020Z,9.45
2023-02-01T17:42:04.711Z,8.90
2023-02-01T17:44:31.981Z,9.30
2023-02-01T17:46:59.687Z,7.35
2023-02-01T17:49:28.674Z,7.57
2023-02-01T17:51:56.947Z,11.52
2023-02-01T17:54:23.682Z,9.45
2023-02-01T17:56:50.403Z,10.32
2023-02-01T17:59:17.598Z,8.30
2023-02-01T18:01:44.307Z,6.80
2023-02-01T18:04:18.455Z,7.03
2023-02-01T18:06:45.436Z,6.47
2023-02-01T18:09:12.086Z,6.45
2023-02-01T18:11:38.680Z,10.43
2023-02-01T18:14:05.325Z,17.67
2023-02-01T18:16:34.182Z,6.45
2023-02-01T18:19:04.958Z,6.80
2023-02-01T18:21:41.700Z,7.45
2023-02-01T18:24:12.373Z,7.88
2023-02-01T18:26:39.054Z,7.05
2023-02-01T18:29:06.303Z,7.85
2023-02-01T18:31:35.680Z,7.50
2023-02-01T18:34:03.008Z,5.85
2023-02-01T18:36:30.445Z,5.88
2023-02-01T18:38:57.697Z,6.47
2023-02-01T18:41:25.199Z,5.13
2023-02-01T18:43:52.730Z,5.50
2023-02-01T18:46:21.546Z,5.07
2023-02-01T18:48:48.239Z,5.28
2023-02-01T18:51:19.792Z,5.30
2023-02-01T18:53:47.691Z,5.25
2023-02-01T18:56:15.332Z,5.60
2023-02-01T18:58:42.001Z,4.72
2023-02-01T19:01:15.406Z,4.22
2023-02-01T19:03:44.638Z,5.15
2023-02-01T19:06:16.111Z,5.55
2023-02-01T19:08:45.428Z,7.28
2023-02-01T19:11:12.638Z,6.03
2023-02-01T19:13:40.249Z,5.85
2023-02-01T19:16:08.466Z,7.40
2023-02-01T19:18:36.069Z,6.13
2023-02-01T19:21:05.161Z,5.38
2023-02-01T19:23:31.904Z,5.38
2023-02-01T19:25:58.476Z,4.53
2023-02-01T19:28:25.105Z,4.88
2023-02-01T19:31:02.787Z,5.75
2023-02-01T19:33:29.475Z,5.40
2023-02-01T19:36:00.581Z,4.47
2023-02-01T19:38:27.264Z,4.05
2023-02-01T19:40:55.711Z,4.45
2023-02-01T19:43:22.738Z,3.83
2023-02-01T19:45:49.893Z,4.20
2023-02-01T19:48:18.141Z,5.47
2023-02-01T19:50:45.584Z,5.32
2023-02-01T19:53:12.887Z,4.03
2023-02-01T19:55:43.782Z,4.03
2023-02-01T19:58:10.324Z,5.00
2023-02-01T20:00:36.686Z,4.43
2023-02-01T20:03:03.537Z,4.70
2023-02-01T20:05:30.255Z,3.47
2023-02-01T20:07:56.902Z,7.88
2023-02-01T20:10:23.608Z,3.58
2023-02-01T20:12:50.321Z,3.35
2023-02-01T20:15:17.394Z,3.80
2023-02-01T20:17:44.605Z,5.68
2023-02-01T20:20:11.418Z,3.78
2023-02-01T20:22:37.997Z,3.67
2023-02-01T20:25:05.445Z,3.88
2023-02-01T20:27:33.035Z,3.67
2023-02-01T20:29:59.605Z,3.92
2023-02-01T20:32:26.161Z,4.00
2023-02-01T20:34:53.240Z,4.07
2023-02-01T20:37:21.087Z,3.80
2023-02-01T20:39:47.732Z,3.65
2023-02-01T20:42:14.347Z,3.70
2023-02-01T20:44:41.025Z,3.80
2023-02-01T20:47:07.632Z,4.40
2023-02-01T20:49:35.207Z,4.15
2023-02-01T20:52:01.792Z,4.10
2023-02-01T20:54:28.397Z,4.18
2023-02-01T20:56:55.119Z,5.63
2023-02-01T20:59:21.723Z,3.00
2023-02-01T21:01:51.766Z,3.25
2023-02-01T21:04:25.064Z,3.33
2023-02-01T21:06:51.606Z,4.32
2023-02-01T21:09:18.310Z,2.35
2023-02-01T21:11:46.080Z,4.55
2023-02-01T21:14:12.721Z,4.57
2023-02-01T21:16:39.536Z,4.47
2023-02-01T21:19:06.441Z,4.32
2023-02-01T21:21:33.055Z,3.53
2023-02-01T21:24:00.454Z,4.07
2023-02-01T21:26:27.987Z,2.15
2023-02-01T21:28:56.141Z,2.90
2023-02-01T21:31:25.540Z,2.58
2023-02-01T21:33:52.858Z,3.63
2023-02-01T21:36:19.867Z,3.35
2023-02-01T21:38:50.748Z,3.42
2023-02-01T21:41:42.215Z,4.30
2023-02-01T21:44:09.654Z,4.57
2023-02-01T21:46:36.217Z,2.88
2023-02-01T21:49:05.759Z,2.85
2023-02-01T21:51:36.413Z,3.00
2023-02-01T21:54:03.216Z,2.65
2023-02-01T21:56:29.789Z,3.65
2023-02-01T21:58:56.561Z,2.90
2023-02-01T22:01:23.720Z,3.17
2023-02-01T22:03:50.363Z,2.30
2023-02-01T22:06:28.938Z,3.53
2023-02-01T22:08:56.413Z,2.83
2023-02-01T22:11:23.448Z,2.90
2023-02-01T22:13:50.338Z,3.65
2023-02-01T22:16:18.169Z,3.72
2023-02-01T22:18:45.574Z,3.45
2023-02-01T22:21:12.483Z,3.28
2023-02-01T22:23:39.128Z,3.90
2023-02-01T22:26:09.336Z,2.67
2023-02-01T22:28:36.996Z,2.58
2023-02-01T22:31:06.317Z,3.10
2023-02-01T22:33:34.005Z,2.78
2023-02-01T22:36:01.392Z,3.22
2023-02-01T22:38:31.082Z,2.55
2023-02-01T22:40:59.461Z,3.03
2023-02-01T22:43:26.616Z,2.10
2023-02-01T22:45:54.035Z,2.58
2023-02-01T22:48:21.183Z,3.03
2023-02-01T22:50:47.804Z,2.30
2023-02-01T22:53:14.333Z,2.78
2023-02-01T22:55:42.219Z,2.15
2023-02-01T22:58:08.896Z,3.55
2023-02-01T23:00:35.517Z,2.03
2023-02-01T23:03:02.118Z,2.03
2023-02-01T23:05:28.700Z,2.47
2023-02-01T23:07:55.251Z,2.60
2023-02-01T23:10:22.218Z,2.78
2023-02-01T23:12:49.298Z,2.55
2023-02-01T23:15:17.238Z,2.25
2023-02-01T23:17:44.521Z,2.15
2023-02-01T23:20:16.687Z,2.30
2023-02-01T23:22:45.169Z,2.22
2023-02-01T23:25:13.807Z,3.22
2023-02-01T23:27:40.914Z,1.92
2023-02-01T23:30:08.387Z,2.55
2023-02-01T23:32:35.894Z,2.78
2023-02-01T23:35:04.029Z,2.33
2023-02-01T23:37:30.690Z,3.70
2023-02-01T23:39:57.264Z,3.63
2023-02-01T23:42:23.878Z,3.05
2023-02-01T23:44:50.437Z,1.83
2023-02-01T23:47:16.968Z,2.40
2023-02-01T23:49:43.554Z,4.10
2023-02-01T23:52:10.654Z,2.60
2023-02-01T23:54:37.180Z,1.50
2023-02-01T23:57:03.805Z,2.15
2023-02-01T23:59:30.576Z,2.00
